sensor_id;sensor_type;location;lat;lon;timestamp;P1;durP1;ratioP1;P2;durP2;ratioP2
41627;SDS011;27321;50.816;6.054;2022-12-24T00:02:14;15.80;;;3.60;;
41627;SDS011;27321;50.816;6.054;2022-12-24T00:05:20;11.90;;;3.10;;
41627;SDS011;27321;50.816;6.054;2022-12-24T00:08:21;13.60;;;2.97;;
41627;SDS011;27321;50.816;6.054;2022-12-24T00:11:22;17.27;;;3.25;;
41627;SDS011;27321;50.816;6.054;2022-12-24T00:14:23;16.00;;;3.90;;
41627;SDS011;27321;50.816;6.054;2022-12-24T00:17:24;15.00;;;3.15;;
41627;SDS011;27321;50.816;6.054;2022-12-24T00:20:25;16.13;;;3.17;;
41627;SDS011;27321;50.816;6.054;2022-12-24T00:23:26;12.73;;;2.92;;
41627;SDS011;27321;50.816;6.054;2022-12-24T00:26:27;15.15;;;3.55;;
41627;SDS011;27321;50.816;6.054;2022-12-24T00:29:29;10.20;;;3.33;;
41627;SDS011;27321;50.816;6.054;2022-12-24T00:32:30;14.03;;;3.17;;
41627;SDS011;27321;50.816;6.054;2022-12-24T00:35:34;11.23;;;3.63;;
41627;SDS011;27321;50.816;6.054;2022-12-24T00:38:37;9.23;;;2.80;;
41627;SDS011;27321;50.816;6.054;2022-12-24T00:44:39;11.67;;;2.70;;
41627;SDS011;27321;50.816;6.054;2022-12-24T00:47:40;23.10;;;4.03;;
41627;SDS011;27321;50.816;6.054;2022-12-24T00:50:41;13.02;;;3.17;;
41627;SDS011;27321;50.816;6.054;2022-12-24T00:53:42;16.47;;;3.17;;
41627;SDS011;27321;50.816;6.054;2022-12-24T00:56:44;14.95;;;3.38;;
41627;SDS011;27321;50.816;6.054;2022-12-24T00:59:45;18.40;;;3.33;;
41627;SDS011;27321;50.816;6.054;2022-12-24T01:02:46;18.33;;;2.88;;
41627;SDS011;27321;50.816;6.054;2022-12-24T01:05:47;14.95;;;3.45;;
41627;SDS011;27321;50.816;6.054;2022-12-24T01:08:51;14.20;;;3.08;;
41627;SDS011;27321;50.816;6.054;2022-12-24T01:11:52;14.43;;;3.10;;
41627;SDS011;27321;50.816;6.054;2022-12-24T01:14:53;18.37;;;3.37;;
41627;SDS011;27321;50.816;6.054;2022-12-24T01:17:54;21.40;;;3.30;;
41627;SDS011;27321;50.816;6.054;2022-12-24T01:20:59;22.73;;;3.93;;
41627;SDS011;27321;50.816;6.054;2022-12-24T01:24:02;16.17;;;3.90;;
41627;SDS011;27321;50.816;6.054;2022-12-24T01:27:03;12.90;;;3.17;;
41627;SDS011;27321;50.816;6.054;2022-12-24T01:30:05;19.70;;;3.80;;
41627;SDS011;27321;50.816;6.054;2022-12-24T01:33:09;20.60;;;3.73;;
41627;SDS011;27321;50.816;6.054;2022-12-24T01:36:10;17.05;;;3.47;;
41627;SDS011;27321;50.816;6.054;2022-12-24T01:39:12;18.53;;;3.70;;
41627;SDS011;27321;50.816;6.054;2022-12-24T01:42:22;16.83;;;3.88;;
41627;SDS011;27321;50.816;6.054;2022-12-24T01:48:54;17.77;;;3.63;;
41627;SDS011;27321;50.816;6.054;2022-12-24T01:52:02;11.73;;;3.30;;
41627;SDS011;27321;50.816;6.054;2022-12-24T01:55:09;12.63;;;3.40;;
41627;SDS011;27321;50.816;6.054;2022-12-24T01:58:17;15.90;;;4.00;;
41627;SDS011;27321;50.816;6.054;2022-12-24T02:01:30;13.23;;;2.87;;
41627;SDS011;27321;50.816;6.054;2022-12-24T02:08:06;19.30;;;3.13;;
41627;SDS011;27321;50.816;6.054;2022-12-24T02:11:16;10.55;;;2.65;;
41627;SDS011;27321;50.816;6.054;2022-12-24T02:14:29;15.43;;;3.23;;
41627;SDS011;27321;50.816;6.054;2022-12-24T02:17:54;14.87;;;3.00;;
41627;SDS011;27321;50.816;6.054;2022-12-24T02:24:28;16.23;;;3.38;;
41627;SDS011;27321;50.816;6.054;2022-12-24T02:27:53;13.93;;;2.83;;
41627;SDS011;27321;50.816;6.054;2022-12-24T02:31:26;12.77;;;3.10;;
41627;SDS011;27321;50.816;6.054;2022-12-24T02:34:57;8.83;;;2.47;;
41627;SDS011;27321;50.816;6.054;2022-12-24T02:41:44;14.13;;;3.10;;
41627;SDS011;27321;50.816;6.054;2022-12-24T02:45:12;10.30;;;2.73;;
41627;SDS011;27321;50.816;6.054;2022-12-24T02:48:17;13.00;;;2.80;;
41627;SDS011;27321;50.816;6.054;2022-12-24T02:51:21;12.37;;;2.70;;
41627;SDS011;27321;50.816;6.054;2022-12-24T02:54:24;5.13;;;1.50;;
41627;SDS011;27321;50.816;6.054;2022-12-24T02:57:27;5.20;;;1.58;;
41627;SDS011;27321;50.816;6.054;2022-12-24T03:07:55;3.07;;;1.20;;
41627;SDS011;27321;50.816;6.054;2022-12-24T03:11:13;7.37;;;2.03;;
41627;SDS011;27321;50.816;6.054;2022-12-24T03:14:15;5.77;;;1.40;;
41627;SDS011;27321;50.816;6.054;2022-12-24T03:17:17;10.30;;;2.30;;
41627;SDS011;27321;50.816;6.054;2022-12-24T03:20:24;8.57;;;1.70;;
41627;SDS011;27321;50.816;6.054;2022-12-24T03:23:33;3.23;;;0.80;;
41627;SDS011;27321;50.816;6.054;2022-12-24T03:26:35;1.05;;;0.50;;
41627;SDS011;27321;50.816;6.054;2022-12-24T03:29:38;1.90;;;0.53;;
41627;SDS011;27321;50.816;6.054;2022-12-24T03:32:40;2.73;;;0.80;;
41627;SDS011;27321;50.816;6.054;2022-12-24T03:35:41;4.20;;;0.95;;
41627;SDS011;27321;50.816;6.054;2022-12-24T03:38:45;4.20;;;0.73;;
41627;SDS011;27321;50.816;6.054;2022-12-24T03:41:47;3.87;;;0.70;;
41627;SDS011;27321;50.816;6.054;2022-12-24T03:44:48;4.00;;;1.00;;
41627;SDS011;27321;50.816;6.054;2022-12-24T03:47:49;1.98;;;0.65;;
41627;SDS011;27321;50.816;6.054;2022-12-24T03:50:50;4.20;;;0.80;;
41627;SDS011;27321;50.816;6.054;2022-12-24T03:53:51;4.95;;;0.80;;
41627;SDS011;27321;50.816;6.054;2022-12-24T03:56:54;4.50;;;1.20;;
41627;SDS011;27321;50.816;6.054;2022-12-24T03:59:55;5.67;;;1.90;;
41627;SDS011;27321;50.816;6.054;2022-12-24T04:02:56;10.27;;;2.53;;
41627;SDS011;27321;50.816;6.054;2022-12-24T04:06:04;9.60;;;2.05;;
41627;SDS011;27321;50.816;6.054;2022-12-24T04:09:11;11.60;;;2.47;;
41627;SDS011;27321;50.816;6.054;2022-12-24T04:12:12;13.30;;;2.73;;
41627;SDS011;27321;50.816;6.054;2022-12-24T04:15:13;15.00;;;3.17;;
41627;SDS011;27321;50.816;6.054;2022-12-24T04:18:14;11.98;;;3.20;;
41627;SDS011;27321;50.816;6.054;2022-12-24T04:21:15;12.37;;;3.33;;
41627;SDS011;27321;50.816;6.054;2022-12-24T04:24:16;13.93;;;2.83;;
41627;SDS011;27321;50.816;6.054;2022-12-24T04:27:17;11.83;;;3.40;;
41627;SDS011;27321;50.816;6.054;2022-12-24T04:30:18;12.30;;;2.83;;
41627;SDS011;27321;50.816;6.054;2022-12-24T04:33:19;11.23;;;3.05;;
41627;SDS011;27321;50.816;6.054;2022-12-24T04:36:20;14.93;;;3.10;;
41627;SDS011;27321;50.816;6.054;2022-12-24T04:39:23;14.00;;;2.90;;
41627;SDS011;27321;50.816;6.054;2022-12-24T04:42:24;9.68;;;2.28;;
41627;SDS011;27321;50.816;6.054;2022-12-24T04:45:25;9.10;;;2.10;;
41627;SDS011;27321;50.816;6.054;2022-12-24T04:48:26;11.73;;;3.43;;
41627;SDS011;27321;50.816;6.054;2022-12-24T04:51:27;16.58;;;3.33;;
41627;SDS011;27321;50.816;6.054;2022-12-24T04:54:28;16.58;;;3.42;;
41627;SDS011;27321;50.816;6.054;2022-12-24T04:57:32;14.00;;;3.25;;
41627;SDS011;27321;50.816;6.054;2022-12-24T05:00:35;11.03;;;3.57;;
41627;SDS011;27321;50.816;6.054;2022-12-24T05:03:36;18.83;;;3.72;;
41627;SDS011;27321;50.816;6.054;2022-12-24T05:06:37;21.40;;;4.60;;
41627;SDS011;27321;50.816;6.054;2022-12-24T05:09:38;19.33;;;4.32;;
41627;SDS011;27321;50.816;6.054;2022-12-24T05:12:39;18.13;;;3.50;;
41627;SDS011;27321;50.816;6.054;2022-12-24T05:15:40;15.77;;;3.30;;
41627;SDS011;27321;50.816;6.054;2022-12-24T05:18:41;13.90;;;3.30;;
41627;SDS011;27321;50.816;6.054;2022-12-24T05:21:42;16.92;;;3.63;;
41627;SDS011;27321;50.816;6.054;2022-12-24T05:24:43;17.60;;;3.42;;
41627;SDS011;27321;50.816;6.054;2022-12-24T05:28:02;10.17;;;2.83;;
41627;SDS011;27321;50.816;6.054;2022-12-24T05:31:03;17.58;;;4.07;;
41627;SDS011;27321;50.816;6.054;2022-12-24T05:34:05;16.73;;;4.07;;
41627;SDS011;27321;50.816;6.054;2022-12-24T05:37:06;18.33;;;3.93;;
41627;SDS011;27321;50.816;6.054;2022-12-24T05:40:08;20.63;;;4.27;;
41627;SDS011;27321;50.816;6.054;2022-12-24T05:43:09;22.75;;;3.83;;
41627;SDS011;27321;50.816;6.054;2022-12-24T05:46:11;15.43;;;3.30;;
41627;SDS011;27321;50.816;6.054;2022-12-24T05:49:15;13.63;;;3.40;;
41627;SDS011;27321;50.816;6.054;2022-12-24T05:52:16;16.50;;;4.20;;
41627;SDS011;27321;50.816;6.054;2022-12-24T05:55:17;17.15;;;3.60;;
41627;SDS011;27321;50.816;6.054;2022-12-24T05:58:18;16.52;;;3.70;;
41627;SDS011;27321;50.816;6.054;2022-12-24T06:01:20;15.00;;;3.20;;
41627;SDS011;27321;50.816;6.054;2022-12-24T06:04:21;16.37;;;3.30;;
41627;SDS011;27321;50.816;6.054;2022-12-24T06:07:22;20.40;;;4.20;;
41627;SDS011;27321;50.816;6.054;2022-12-24T06:10:23;20.38;;;3.65;;
41627;SDS011;27321;50.816;6.054;2022-12-24T06:13:25;15.73;;;3.72;;
41627;SDS011;27321;50.816;6.054;2022-12-24T06:19:27;16.17;;;3.40;;
41627;SDS011;27321;50.816;6.054;2022-12-24T06:22:28;12.30;;;2.90;;
41627;SDS011;27321;50.816;6.054;2022-12-24T06:25:30;14.07;;;3.58;;
41627;SDS011;27321;50.816;6.054;2022-12-24T06:28:31;14.65;;;2.65;;
41627;SDS011;27321;50.816;6.054;2022-12-24T06:31:34;16.83;;;3.90;;
41627;SDS011;27321;50.816;6.054;2022-12-24T06:34:35;14.30;;;4.50;;
41627;SDS011;27321;50.816;6.054;2022-12-24T06:37:37;12.32;;;3.20;;
41627;SDS011;27321;50.816;6.054;2022-12-24T06:40:39;17.73;;;3.55;;
41627;SDS011;27321;50.816;6.054;2022-12-24T06:43:43;26.37;;;4.13;;
41627;SDS011;27321;50.816;6.054;2022-12-24T06:46:46;14.47;;;3.27;;
41627;SDS011;27321;50.816;6.054;2022-12-24T06:49:47;17.60;;;3.45;;
41627;SDS011;27321;50.816;6.054;2022-12-24T06:52:48;19.13;;;4.00;;
41627;SDS011;27321;50.816;6.054;2022-12-24T06:55:49;16.23;;;3.28;;
41627;SDS011;27321;50.816;6.054;2022-12-24T06:58:50;24.35;;;4.28;;
41627;SDS011;27321;50.816;6.054;2022-12-24T07:01:51;15.02;;;2.97;;
41627;SDS011;27321;50.816;6.054;2022-12-24T07:04:52;14.83;;;3.63;;
41627;SDS011;27321;50.816;6.054;2022-12-24T07:07:54;18.05;;;4.15;;
41627;SDS011;27321;50.816;6.054;2022-12-24T07:13:58;19.10;;;4.53;;
41627;SDS011;27321;50.816;6.054;2022-12-24T07:16:59;14.63;;;3.47;;
41627;SDS011;27321;50.816;6.054;2022-12-24T07:20:02;15.97;;;3.47;;
41627;SDS011;27321;50.816;6.054;2022-12-24T07:23:06;16.83;;;3.40;;
41627;SDS011;27321;50.816;6.054;2022-12-24T07:26:09;19.23;;;3.85;;
41627;SDS011;27321;50.816;6.054;2022-12-24T07:29:10;16.07;;;3.57;;
41627;SDS011;27321;50.816;6.054;2022-12-24T07:32:11;15.57;;;3.47;;
41627;SDS011;27321;50.816;6.054;2022-12-24T07:35:13;22.27;;;3.72;;
41627;SDS011;27321;50.816;6.054;2022-12-24T07:38:14;23.17;;;4.00;;
41627;SDS011;27321;50.816;6.054;2022-12-24T07:41:17;18.20;;;4.17;;
41627;SDS011;27321;50.816;6.054;2022-12-24T07:44:18;16.47;;;3.80;;
41627;SDS011;27321;50.816;6.054;2022-12-24T07:47:19;14.43;;;3.90;;
41627;SDS011;27321;50.816;6.054;2022-12-24T07:50:20;13.38;;;3.60;;
41627;SDS011;27321;50.816;6.054;2022-12-24T07:53:21;17.40;;;3.63;;
41627;SDS011;27321;50.816;6.054;2022-12-24T07:56:27;23.33;;;4.10;;
41627;SDS011;27321;50.816;6.054;2022-12-24T07:59:28;17.93;;;3.77;;
41627;SDS011;27321;50.816;6.054;2022-12-24T08:02:32;13.73;;;3.23;;
41627;SDS011;27321;50.816;6.054;2022-12-24T08:05:35;18.73;;;3.37;;
41627;SDS011;27321;50.816;6.054;2022-12-24T08:08:37;13.52;;;3.15;;
41627;SDS011;27321;50.816;6.054;2022-12-24T08:11:43;19.10;;;3.70;;
41627;SDS011;27321;50.816;6.054;2022-12-24T08:14:45;17.58;;;3.80;;
41627;SDS011;27321;50.816;6.054;2022-12-24T08:17:52;16.10;;;4.37;;
41627;SDS011;27321;50.816;6.054;2022-12-24T08:20:53;16.88;;;4.00;;
41627;SDS011;27321;50.816;6.054;2022-12-24T08:23:54;17.92;;;3.45;;
41627;SDS011;27321;50.816;6.054;2022-12-24T08:26:55;18.95;;;4.22;;
41627;SDS011;27321;50.816;6.054;2022-12-24T08:29:59;15.93;;;3.70;;
41627;SDS011;27321;50.816;6.054;2022-12-24T08:33:00;13.50;;;3.83;;
41627;SDS011;27321;50.816;6.054;2022-12-24T08:36:01;17.53;;;4.07;;
41627;SDS011;27321;50.816;6.054;2022-12-24T08:39:04;20.83;;;3.97;;
41627;SDS011;27321;50.816;6.054;2022-12-24T08:42:08;24.80;;;4.37;;
41627;SDS011;27321;50.816;6.054;2022-12-24T08:45:09;16.65;;;3.55;;
41627;SDS011;27321;50.816;6.054;2022-12-24T08:51:12;20.17;;;3.57;;
41627;SDS011;27321;50.816;6.054;2022-12-24T08:54:13;14.85;;;3.53;;
41627;SDS011;27321;50.816;6.054;2022-12-24T08:57:14;15.65;;;3.58;;
41627;SDS011;27321;50.816;6.054;2022-12-24T09:00:16;13.25;;;3.53;;
41627;SDS011;27321;50.816;6.054;2022-12-24T09:06:21;15.70;;;3.07;;
41627;SDS011;27321;50.816;6.054;2022-12-24T09:09:22;16.70;;;4.17;;
41627;SDS011;27321;50.816;6.054;2022-12-24T09:15:31;15.43;;;3.83;;
41627;SDS011;27321;50.816;6.054;2022-12-24T09:18:34;14.10;;;3.30;;
41627;SDS011;27321;50.816;6.054;2022-12-24T09:21:35;16.35;;;4.00;;
41627;SDS011;27321;50.816;6.054;2022-12-24T09:24:36;20.63;;;4.50;;
41627;SDS011;27321;50.816;6.054;2022-12-24T09:27:38;14.10;;;3.73;;
41627;SDS011;27321;50.816;6.054;2022-12-24T09:30:39;19.70;;;4.00;;
41627;SDS011;27321;50.816;6.054;2022-12-24T09:33:42;13.88;;;3.92;;
41627;SDS011;27321;50.816;6.054;2022-12-24T09:36:47;14.80;;;3.77;;
41627;SDS011;27321;50.816;6.054;2022-12-24T09:39:48;15.05;;;3.70;;
41627;SDS011;27321;50.816;6.054;2022-12-24T09:49:25;25.63;;;4.63;;
41627;SDS011;27321;50.816;6.054;2022-12-24T09:52:51;12.43;;;3.83;;
41627;SDS011;27321;50.816;6.054;2022-12-24T09:55:55;13.20;;;3.77;;
41627;SDS011;27321;50.816;6.054;2022-12-24T09:58:59;13.33;;;3.53;;
41627;SDS011;27321;50.816;6.054;2022-12-24T10:02:14;18.67;;;3.87;;
41627;SDS011;27321;50.816;6.054;2022-12-24T10:05:25;17.13;;;4.13;;
41627;SDS011;27321;50.816;6.054;2022-12-24T10:09:07;21.10;;;4.20;;
41627;SDS011;27321;50.816;6.054;2022-12-24T10:20:30;15.60;;;3.63;;
41627;SDS011;27321;50.816;6.054;2022-12-24T10:23:42;17.00;;;4.35;;
41627;SDS011;27321;50.816;6.054;2022-12-24T10:26:54;20.13;;;4.23;;
41627;SDS011;27321;50.816;6.054;2022-12-24T10:30:11;23.90;;;4.13;;
41627;SDS011;27321;50.816;6.054;2022-12-24T10:36:48;20.03;;;3.93;;
41627;SDS011;27321;50.816;6.054;2022-12-24T10:39:50;12.27;;;3.22;;
41627;SDS011;27321;50.816;6.054;2022-12-24T10:42:52;15.70;;;3.60;;
41627;SDS011;27321;50.816;6.054;2022-12-24T10:45:57;15.03;;;3.60;;
41627;SDS011;27321;50.816;6.054;2022-12-24T10:49:11;14.13;;;3.63;;
41627;SDS011;27321;50.816;6.054;2022-12-24T10:52:30;20.27;;;4.65;;
41627;SDS011;27321;50.816;6.054;2022-12-24T10:55:38;14.47;;;3.77;;
41627;SDS011;27321;50.816;6.054;2022-12-24T10:58:44;19.85;;;4.60;;
41627;SDS011;27321;50.816;6.054;2022-12-24T11:01:52;17.17;;;4.03;;
41627;SDS011;27321;50.816;6.054;2022-12-24T11:04:55;19.73;;;4.20;;
41627;SDS011;27321;50.816;6.054;2022-12-24T11:11:20;17.03;;;4.30;;
41627;SDS011;27321;50.816;6.054;2022-12-24T11:14:22;18.97;;;4.27;;
41627;SDS011;27321;50.816;6.054;2022-12-24T11:17:25;13.97;;;3.87;;
41627;SDS011;27321;50.816;6.054;2022-12-24T11:20:28;13.93;;;3.67;;
41627;SDS011;27321;50.816;6.054;2022-12-24T11:23:34;18.97;;;3.40;;
41627;SDS011;27321;50.816;6.054;2022-12-24T11:28:15;15.23;;;3.87;;
41627;SDS011;27321;50.816;6.054;2022-12-24T11:31:28;16.27;;;4.30;;
41627;SDS011;27321;50.816;6.054;2022-12-24T11:34:32;19.70;;;4.37;;
41627;SDS011;27321;50.816;6.054;2022-12-24T11:41:05;24.13;;;3.70;;
